This is the latest recevied weather packets stored in our database for station/object N5DGC. If no packets are shown the sender has not sent any weather packets the latest 10 day(s).
| Time | Temp. | Humidity | Pressure | Rain* | Wind** | Luminosity | Snow |
|---|---|---|---|---|---|---|---|
| 1788489664 | 23.89° C | 47% | 1238.3 hPa | 0 mm | - | 0 W/m² | - |
| 1788489360 | 23.89° C | 47% | 1238.7 hPa | 0 mm | - | 0 W/m² | - |
| 1788489056 | 23.89° C | 47% | 1238.3 hPa | 0 mm | - | 0 W/m² | - |
| 1788488756 | 23.89° C | 47% | 1238.3 hPa | 0 mm | - | 0 W/m² | - |
| 1788488453 | 24.44° C | 46% | 1238.2 hPa | 0 mm | - | 0 W/m² | - |
| 1788488148 | 24.44° C | 46% | 1237.7 hPa | 0 mm | - | 0 W/m² | - |
| 1788487843 | 24.44° C | 45% | 1237.7 hPa | 0 mm | - | 0 W/m² | - |
| 1788487538 | 25° C | 44% | 1237.6 hPa | 0 mm | - | 0 W/m² | - |
| 1788487232 | 25° C | 43% | 1237.6 hPa | 0 mm | - | 0 W/m² | - |
| 1788486927 | 25.56° C | 42% | 1237.5 hPa | 0 mm | - | 0 W/m² | - |
| 1788486627 | 25.56° C | 41% | 1237.5 hPa | 0 mm | - | 0 W/m² | - |
| 1788486326 | 26.67° C | 38% | 1237.4 hPa | 0 mm | - | 0 W/m² | - |
| 1788486022 | 26.67° C | 37% | 1237.5 hPa | 0 mm | - | 0 W/m² | - |
| 1788485718 | 26.67° C | 37% | 1237.3 hPa | 0 mm | - | 1 W/m² | - |
| 1788485415 | 26.67° C | 37% | 1237.4 hPa | 0 mm | - | 2 W/m² | - |
| 1788485114 | 26.67° C | 38% | 1237.5 hPa | 0 mm | - | 4 W/m² | - |
| 1788484808 | 26.67° C | 38% | 1237.5 hPa | 0 mm | - | 5 W/m² | - |
| 1788484502 | 26.67° C | 38% | 1237.3 hPa | 0 mm | - | 7 W/m² | - |
| 1788484198 | 26.11° C | 40% | 1237.4 hPa | 0 mm | - | 11 W/m² | - |
| 1788483895 | 26.11° C | 40% | 1237.4 hPa | 0 mm | - | 19 W/m² | - |
| 1788483594 | 26.11° C | 40% | 1237.5 hPa | 0 mm | - | 21 W/m² | - |
| 1788483291 | 26.67° C | 40% | 1237.4 hPa | 0 mm | - | 23 W/m² | - |
| 1788482991 | 26.67° C | 38% | 1237.2 hPa | 0 mm | - | 26 W/m² | - |
| 1788482688 | 27.22° C | 38% | 1237.3 hPa | 0 mm | - | 25 W/m² | - |
| 1788482387 | 28.33° C | 36% | 1237.2 hPa | 0 mm | - | 26 W/m² | - |
* Rain latest hour (hover to see other rain measurements)
** Current wind speed in m/s (hover to see current wind gust speed)